PWSweather.com
Personal Weather Stations
Station Observations
ASHURSTBR1
New Forest, TottonGB SO40 7EA

New ForestTottonGB SO40 7EA

Lat: 50.9097024, Lon: -1.5111684999999397

Elevation: 27

Station Type: Davis VP2 Plus

Latest ConditionsUpdated 5:00:00 PM GMT Monday, Sep 23, 2019
Currently Today's Max Today's Min Today's Average
Temperature 60.1°F15.6°C 65.7°F18.7°C 48.8°F9.3°C 58.0°F14.4°C
Dew Point 57.8°F14.3°C 58.1°F14.5°C 46.9°F8.3°C 54.4°F12.4°C
Winds 9.0 mph SSE14.5 kmh SSE 9.0 mph -14.5 kmh - - 2.7 mph 4.3 kmh
Wind Gusts 19.0 mph30.6 kmh 21.0 mph33.8 kmh - -
Humidity 92% 96% 74% 88%
Pressure 29.75 in1007.5 mb 29.84 in1010.5 mb 29.72 in1006.4 mb -
Precipitation - 0.31 in7.9 mm - -
Hour Temp Dew Point Humidity Winds Wind Gusts Pressure Precip Precip Rate Daily Precip Total
05:00 PM 60.1°F15.6°C 57.8°F14.3°C 92% 9.0 mph SSE14.5 kmh SSE 19.0 mph30.6 kmh 29.75 in1007.5 mb 0.14 in3.6 mm 0.01 in0.3 mm 0.31 in7.9 mm
04:45 PM 60.3°F15.7°C 58.0°F14.4°C 92% 6.0 mph S9.7 kmh S 14.0 mph22.5 kmh 29.75 in1007.5 mb 0.13 in3.3 mm 0.12 in3.0 mm 0.28 in7.1 mm
04:30 PM 60.3°F15.7°C 58.0°F14.4°C 92% 5.0 mph S8.0 kmh S 14.0 mph22.5 kmh 29.75 in1007.5 mb 0.10 in2.5 mm 0.04 in1.0 mm 0.25 in6.4 mm
04:15 PM 60.3°F15.7°C 58.0°F14.4°C 92% 6.0 mph SSE9.7 kmh SSE 17.0 mph27.4 kmh 29.75 in1007.5 mb 0.09 in2.3 mm 0.16 in4.1 mm 0.23 in5.8 mm
04:00 PM 60.4°F15.8°C 57.8°F14.3°C 91% 6.0 mph SSE9.7 kmh SSE 18.0 mph29.0 kmh 29.76 in1007.8 mb 0.05 in1.3 mm 0.03 in0.8 mm 0.17 in4.3 mm
03:45 PM 60.4°F15.8°C 57.8°F14.3°C 91% 6.0 mph S9.7 kmh S 15.0 mph24.1 kmh 29.76 in1007.8 mb 0.03 in0.8 mm 0.00 in0.0 mm 0.16 in4.1 mm
03:30 PM 60.3°F15.7°C 57.7°F14.3°C 91% 5.0 mph SSE8.0 kmh SSE 13.0 mph20.9 kmh 29.76 in1007.8 mb 0.06 in1.5 mm 0.00 in0.0 mm 0.15 in3.8 mm
03:15 PM 60.5°F15.8°C 57.6°F14.2°C 90% 6.0 mph S9.7 kmh S 21.0 mph33.8 kmh 29.77 in1008.1 mb 0.06 in1.5 mm 0.00 in0.0 mm 0.14 in3.6 mm
03:00 PM 60.3°F15.7°C 57.7°F14.3°C 91% 5.0 mph SSE8.0 kmh SSE 13.0 mph20.9 kmh 29.77 in1008.1 mb 0.06 in1.5 mm 0.00 in0.0 mm 0.13 in3.3 mm
02:45 PM 60.0°F15.6°C 57.1°F13.9°C 90% 6.0 mph SSE9.7 kmh SSE 15.0 mph24.1 kmh 29.78 in1008.5 mb 0.08 in2.0 mm 0.08 in2.0 mm 0.13 in3.3 mm
02:30 PM 60.3°F15.7°C 56.7°F13.7°C 88% 5.0 mph SSE8.0 kmh SSE 11.0 mph17.7 kmh 29.79 in1008.8 mb 0.06 in1.5 mm 0.00 in0.0 mm 0.09 in2.3 mm
02:15 PM 61.1°F16.2°C 57.8°F14.3°C 89% 5.0 mph SSE8.0 kmh SSE 13.0 mph20.9 kmh 29.79 in1008.8 mb 0.06 in1.5 mm 0.00 in0.0 mm 0.08 in2.0 mm
02:00 PM 61.1°F16.2°C 58.1°F14.5°C 90% 6.0 mph S9.7 kmh S 14.0 mph22.5 kmh 29.80 in1009.1 mb 0.06 in1.5 mm 0.03 in0.8 mm 0.07 in1.8 mm
01:45 PM 61.4°F16.3°C 57.8°F14.3°C 88% 5.0 mph S8.0 kmh S 13.0 mph20.9 kmh 29.80 in1009.1 mb 0.04 in1.0 mm 0.08 in2.0 mm 0.05 in1.3 mm
01:30 PM 61.8°F16.6°C 57.9°F14.4°C 87% 4.0 mph S6.4 kmh S 11.0 mph17.7 kmh 29.81 in1009.5 mb 0.02 in0.5 mm 0.04 in1.0 mm 0.03 in0.8 mm
01:15 PM 62.5°F16.9°C 57.6°F14.2°C 84% 6.0 mph S9.7 kmh S 14.0 mph22.5 kmh 29.81 in1009.5 mb 0.01 in0.3 mm 0.04 in1.0 mm 0.02 in0.5 mm
01:00 PM 63.7°F17.6°C 57.4°F14.1°C 80% 6.0 mph S9.7 kmh S 16.0 mph25.7 kmh 29.81 in1009.5 mb 0.00 in0.0 mm 0.00 in0.0 mm 0.01 in0.3 mm
12:45 PM 64.3°F17.9°C 57.3°F14.1°C 78% 7.0 mph S11.3 kmh S 15.0 mph24.1 kmh 29.81 in1009.5 mb 0.00 in0.0 mm 0.00 in0.0 mm 0.01 in0.3 mm
12:30 PM 64.3°F17.9°C 57.3°F14.1°C 78% 8.0 mph S12.9 kmh S 19.0 mph30.6 kmh 29.81 in1009.5 mb 0.00 in0.0 mm 0.00 in0.0 mm 0.01 in0.3 mm
12:15 PM 64.8°F18.2°C 57.4°F14.1°C 77% 6.0 mph S9.7 kmh S 14.0 mph22.5 kmh 29.81 in1009.5 mb 0.00 in0.0 mm 0.00 in0.0 mm 0.01 in0.3 mm
12:00 PM 64.5°F18.1°C 57.1°F13.9°C 77% 5.0 mph S8.0 kmh S 13.0 mph20.9 kmh 29.81 in1009.5 mb 0.00 in0.0 mm 0.00 in0.0 mm 0.01 in0.3 mm
11:45 AM 64.4°F18.0°C 57.0°F13.9°C 77% 6.0 mph S9.7 kmh S 17.0 mph27.4 kmh 29.81 in1009.5 mb 0.00 in0.0 mm 0.00 in0.0 mm 0.01 in0.3 mm
11:30 AM 65.0°F18.3°C 56.9°F13.8°C 75% 5.0 mph S8.0 kmh S 15.0 mph24.1 kmh 29.82 in1009.8 mb 0.00 in0.0 mm 0.00 in0.0 mm 0.01 in0.3 mm
11:15 AM 65.7°F18.7°C 57.2°F14.0°C 74% 5.0 mph S8.0 kmh S 16.0 mph25.7 kmh 29.82 in1009.8 mb 0.00 in0.0 mm 0.00 in0.0 mm 0.01 in0.3 mm
11:00 AM 65.1°F18.4°C 56.6°F13.7°C 74% 5.0 mph S8.0 kmh S 13.0 mph20.9 kmh 29.82 in1009.8 mb 0.00 in0.0 mm 0.00 in0.0 mm 0.01 in0.3 mm
10:45 AM 65.2°F18.4°C 57.1°F13.9°C 75% 5.0 mph S8.0 kmh S 15.0 mph24.1 kmh 29.82 in1009.8 mb 0.00 in0.0 mm 0.00 in0.0 mm 0.01 in0.3 mm
10:30 AM 65.7°F18.7°C 57.9°F14.4°C 76% 4.0 mph S6.4 kmh S 12.0 mph19.3 kmh 29.82 in1009.8 mb 0.01 in0.3 mm 0.00 in0.0 mm 0.01 in0.3 mm
10:15 AM 65.6°F18.7°C 57.1°F13.9°C 74% 5.0 mph S8.0 kmh S 12.0 mph19.3 kmh 29.82 in1009.8 mb 0.01 in0.3 mm 0.00 in0.0 mm 0.01 in0.3 mm
10:00 AM 65.1°F18.4°C 57.3°F14.1°C 76% 5.0 mph S8.0 kmh S 12.0 mph19.3 kmh 29.83 in1010.2 mb 0.01 in0.3 mm 0.00 in0.0 mm 0.01 in0.3 mm
09:45 AM 63.9°F17.7°C 56.9°F13.8°C 78% 5.0 mph S8.0 kmh S 14.0 mph22.5 kmh 29.84 in1010.5 mb 0.01 in0.3 mm 0.04 in1.0 mm 0.01 in0.3 mm
09:30 AM 63.6°F17.6°C 57.3°F14.1°C 80% 3.0 mph S4.8 kmh S 15.0 mph24.1 kmh 29.84 in1010.5 mb 0.00 in0.0 mm 0.00 in0.0 mm 0.00 in0.0 mm
09:15 AM 62.9°F17.2°C 57.7°F14.3°C 83% 4.0 mph S6.4 kmh S 12.0 mph19.3 kmh 29.83 in1010.2 mb 0.00 in0.0 mm 0.00 in0.0 mm 0.00 in0.0 mm
09:00 AM 61.4°F16.3°C 57.5°F14.2°C 87% 3.0 mph S4.8 kmh S 9.0 mph14.5 kmh 29.83 in1010.2 mb 0.00 in0.0 mm 0.00 in0.0 mm 0.00 in0.0 mm
08:45 AM 58.8°F14.9°C 55.9°F13.3°C 90% 4.0 mph S6.4 kmh S 8.0 mph12.9 kmh 29.83 in1010.2 mb 0.00 in0.0 mm 0.00 in0.0 mm 0.00 in0.0 mm
08:30 AM 57.5°F14.2°C 55.8°F13.2°C 94% 2.0 mph S3.2 kmh S 8.0 mph12.9 kmh 29.83 in1010.2 mb 0.00 in0.0 mm 0.00 in0.0 mm 0.00 in0.0 mm
08:15 AM 56.7°F13.7°C 55.6°F13.1°C 96% 1.0 mph SSW1.6 kmh SSW 4.0 mph6.4 kmh 29.83 in1010.2 mb 0.00 in0.0 mm 0.00 in0.0 mm 0.00 in0.0 mm
08:00 AM 55.5°F13.1°C 54.4°F12.4°C 96% Calm Calm 2.0 mph3.2 kmh 29.84 in1010.5 mb 0.00 in0.0 mm 0.00 in0.0 mm 0.00 in0.0 mm
07:45 AM 53.6°F12.0°C 52.5°F11.4°C 96% Calm Calm -- 29.83 in1010.2 mb 0.00 in0.0 mm 0.00 in0.0 mm 0.00 in0.0 mm
07:30 AM 52.1°F11.2°C 50.7°F10.4°C 95% Calm Calm -- 29.83 in1010.2 mb 0.00 in0.0 mm 0.00 in0.0 mm 0.00 in0.0 mm
07:15 AM 51.4°F10.8°C 50.0°F10.0°C 95% Calm Calm -- 29.83 in1010.2 mb 0.00 in0.0 mm 0.00 in0.0 mm 0.00 in0.0 mm
07:00 AM 49.6°F9.8°C 47.9°F8.8°C 94% Calm Calm -- 29.82 in1009.8 mb 0.00 in0.0 mm 0.00 in0.0 mm 0.00 in0.0 mm
06:45 AM 49.3°F9.6°C 47.4°F8.6°C 93% Calm Calm -- 29.82 in1009.8 mb 0.00 in0.0 mm 0.00 in0.0 mm 0.00 in0.0 mm
06:30 AM 48.8°F9.3°C 46.9°F8.3°C 93% Calm Calm -- 29.82 in1009.8 mb 0.00 in0.0 mm 0.00 in0.0 mm 0.00 in0.0 mm
06:15 AM 49.1°F9.5°C 46.9°F8.3°C 92% Calm Calm -- 29.82 in1009.8 mb 0.00 in0.0 mm 0.00 in0.0 mm 0.00 in0.0 mm
06:00 AM 49.7°F9.8°C 47.2°F8.4°C 91% Calm Calm -- 29.81 in1009.5 mb 0.00 in0.0 mm 0.00 in0.0 mm 0.00 in0.0 mm
05:45 AM 50.6°F10.3°C 48.4°F9.1°C 92% Calm Calm -- 29.81 in1009.5 mb 0.00 in0.0 mm 0.00 in0.0 mm 0.00 in0.0 mm
05:30 AM 51.5°F10.8°C 49.3°F9.6°C 92% Calm Calm -- 29.81 in1009.5 mb 0.00 in0.0 mm 0.00 in0.0 mm 0.00 in0.0 mm
05:15 AM 51.8°F11.0°C 49.5°F9.7°C 92% Calm Calm -- 29.81 in1009.5 mb 0.00 in0.0 mm 0.00 in0.0 mm 0.00 in0.0 mm
05:00 AM 52.2°F11.2°C 49.9°F9.9°C 92% Calm Calm 1.0 mph1.6 kmh 29.81 in1009.5 mb 0.00 in0.0 mm 0.00 in0.0 mm 0.00 in0.0 mm
04:45 AM 52.3°F11.3°C 50.0°F10.0°C 92% Calm Calm 4.0 mph6.4 kmh 29.80 in1009.1 mb 0.00 in0.0 mm 0.00 in0.0 mm 0.00 in0.0 mm
04:30 AM 52.6°F11.4°C 50.3°F10.2°C 92% Calm Calm 1.0 mph1.6 kmh 29.79 in1008.8 mb 0.00 in0.0 mm 0.00 in0.0 mm 0.00 in0.0 mm
04:15 AM 52.9°F11.6°C 50.6°F10.3°C 92% Calm Calm 2.0 mph3.2 kmh 29.79 in1008.8 mb 0.00 in0.0 mm 0.00 in0.0 mm 0.00 in0.0 mm
04:00 AM 53.2°F11.8°C 50.9°F10.5°C 92% Calm Calm 1.0 mph1.6 kmh 29.79 in1008.8 mb 0.00 in0.0 mm 0.00 in0.0 mm 0.00 in0.0 mm
03:45 AM 53.5°F11.9°C 51.2°F10.7°C 92% Calm Calm 5.0 mph8.0 kmh 29.79 in1008.8 mb 0.00 in0.0 mm 0.00 in0.0 mm 0.00 in0.0 mm
03:30 AM 54.1°F12.3°C 51.8°F11.0°C 92% Calm Calm 1.0 mph1.6 kmh 29.78 in1008.5 mb 0.00 in0.0 mm 0.00 in0.0 mm 0.00 in0.0 mm
03:15 AM 54.5°F12.5°C 52.2°F11.2°C 92% Calm Calm 4.0 mph6.4 kmh 29.78 in1008.5 mb 0.00 in0.0 mm 0.00 in0.0 mm 0.00 in0.0 mm
03:00 AM 54.7°F12.6°C 52.1°F11.2°C 91% Calm Calm 2.0 mph3.2 kmh 29.78 in1008.5 mb 0.00 in0.0 mm 0.00 in0.0 mm 0.00 in0.0 mm
02:45 AM 55.3°F12.9°C 52.7°F11.5°C 91% Calm Calm 2.0 mph3.2 kmh 29.78 in1008.5 mb 0.00 in0.0 mm 0.00 in0.0 mm 0.00 in0.0 mm
02:30 AM 55.8°F13.2°C 53.2°F11.8°C 91% Calm Calm 6.0 mph9.7 kmh 29.77 in1008.1 mb 0.00 in0.0 mm 0.00 in0.0 mm 0.00 in0.0 mm
02:15 AM 56.2°F13.4°C 53.9°F12.2°C 92% 1.0 mph SW1.6 kmh SW 4.0 mph6.4 kmh 29.76 in1007.8 mb 0.00 in0.0 mm 0.00 in0.0 mm 0.00 in0.0 mm
02:00 AM 56.3°F13.5°C 54.3°F12.4°C 93% Calm Calm 7.0 mph11.3 kmh 29.75 in1007.5 mb 0.00 in0.0 mm 0.00 in0.0 mm 0.00 in0.0 mm
01:45 AM 56.2°F13.4°C 54.2°F12.3°C 93% 1.0 mph SW1.6 kmh SW 10.0 mph16.1 kmh 29.75 in1007.5 mb 0.00 in0.0 mm 0.00 in0.0 mm 0.00 in0.0 mm
01:30 AM 55.5°F13.1°C 53.8°F12.1°C 94% 1.0 mph SW1.6 kmh SW 3.0 mph4.8 kmh 29.74 in1007.1 mb 0.00 in0.0 mm 0.00 in0.0 mm 0.00 in0.0 mm
01:15 AM 54.7°F12.6°C 52.4°F11.3°C 92% Calm Calm 1.0 mph1.6 kmh 29.75 in1007.5 mb 0.00 in0.0 mm 0.00 in0.0 mm 0.00 in0.0 mm
01:00 AM 55.2°F12.9°C 52.9°F11.6°C 92% Calm Calm -- 29.74 in1007.1 mb 0.00 in0.0 mm 0.00 in0.0 mm 0.00 in0.0 mm
12:45 AM 55.6°F13.1°C 53.6°F12.0°C 93% Calm Calm 1.0 mph1.6 kmh 29.74 in1007.1 mb 0.00 in0.0 mm 0.00 in0.0 mm 0.00 in0.0 mm
12:30 AM 55.3°F12.9°C 53.0°F11.7°C 92% Calm Calm -- 29.73 in1006.8 mb 0.00 in0.0 mm 0.00 in0.0 mm 0.00 in0.0 mm
12:15 AM 55.3°F12.9°C 53.0°F11.7°C 92% Calm Calm 1.0 mph1.6 kmh 29.73 in1006.8 mb 0.00 in0.0 mm 0.00 in0.0 mm 0.00 in0.0 mm
12:00 AM 55.8°F13.2°C 53.2°F11.8°C 91% Calm Calm -- 29.72 in1006.4 mb 0.00 in0.0 mm 0.00 in0.0 mm 0.00 in0.0 mm